Time;durP1;ratioP1;P1;durP2;ratioP2;P2;SDS_P1;SDS_P2;PMS_P1;PMS_P2;Temp;Humidity;BMP_temperature;BMP_pressure;BME280_temperature;BME280_humidity;BME280_pressure;Samples;Min_cycle;Max_cycle;Signal;HPM_P1;HPM_P2
2022/04/22 00:00:14;;;;;;;3.50;2.73;;;9.20;1.00;;;;;;5072657;28;20453;-77
2022/04/22 00:02:42;;;;;;;6.30;3.67;;;9.20;1.00;;;;;;5071389;28;20449;-77
2022/04/22 00:05:09;;;;;;;5.90;3.23;;;9.10;1.00;;;;;;5072016;28;20963;-78
2022/04/22 00:07:36;;;;;;;5.73;3.73;;;9.10;1.00;;;;;;5075415;28;20458;-77
2022/04/22 00:10:05;;;;;;;4.20;3.83;;;9.00;1.00;;;;;;5077250;28;20483;-77
2022/04/22 00:12:31;;;;;;;5.83;3.83;;;9.00;1.00;;;;;;5076959;28;20475;-77
2022/04/22 00:14:58;;;;;;;5.20;4.43;;;9.00;1.00;;;;;;5077255;28;20872;-78
2022/04/22 00:17:25;;;;;;;5.00;3.70;;;8.90;1.00;;;;;;5077652;28;20481;-77
2022/04/22 00:19:53;;;;;;;8.63;4.00;;;8.80;1.00;;;;;;5076735;28;20991;-78
2022/04/22 00:22:19;;;;;;;3.93;3.60;;;8.80;1.00;;;;;;5077515;28;20448;-77
2022/04/22 00:24:46;;;;;;;4.23;3.83;;;8.80;1.00;;;;;;5076702;28;20467;-77
2022/04/22 00:27:13;;;;;;;4.23;3.10;;;8.60;1.00;;;;;;5076707;28;20487;-77
2022/04/22 00:29:39;;;;;;;7.47;3.77;;;8.70;1.00;;;;;;5077595;28;20427;-78
2022/04/22 00:32:07;;;;;;;9.87;4.20;;;8.70;1.00;;;;;;5076307;28;20457;-78
2022/04/22 00:34:33;;;;;;;8.70;4.33;;;8.50;1.00;;;;;;5076194;28;21002;-78
2022/04/22 00:37:01;;;;;;;6.60;3.90;;;8.60;1.00;;;;;;5076671;28;20532;-78
2022/04/22 00:39:28;;;;;;;6.13;4.00;;;8.60;1.00;;;;;;5076133;28;20449;-77
2022/04/22 00:41:54;;;;;;;4.60;4.20;;;8.60;1.00;;;;;;5075970;28;20476;-78
2022/04/22 00:44:21;;;;;;;4.00;3.33;;;8.40;1.00;;;;;;5076656;28;20463;-79
2022/04/22 00:46:48;;;;;;;6.07;3.90;;;8.50;1.00;;;;;;5082862;28;20447;-78
2022/04/22 00:49:15;;;;;;;5.60;4.10;;;8.40;1.00;;;;;;5075843;28;20534;-79
2022/04/22 00:51:41;;;;;;;7.53;4.97;;;8.40;1.00;;;;;;5075729;28;20487;-78
2022/04/22 00:54:10;;;;;;;6.43;4.10;;;8.30;12.60;;;;;;5075973;28;20427;-78
2022/04/22 00:56:37;;;;;;;6.63;4.23;;;8.20;8.00;;;;;;5075511;28;20489;-78
2022/04/22 00:59:03;;;;;;;6.50;4.30;;;8.20;1.00;;;;;;5075951;28;20528;-78
2022/04/22 01:01:31;;;;;;;7.20;4.70;;;8.20;5.20;;;;;;5075666;28;20496;-78
2022/04/22 01:12:13;;;;;;;9.03;5.10;;;7.80;22.90;;;;;;5075148;28;20497;-79
2022/04/22 01:14:41;;;;;;;5.43;4.90;;;8.00;13.90;;;;;;5074976;28;20958;-79
2022/04/22 01:17:08;;;;;;;7.50;4.90;;;8.00;18.10;;;;;;5074875;28;20440;-78
2022/04/22 01:19:35;;;;;;;11.13;5.70;;;7.90;55.40;;;;;;5075478;28;20452;-78
2022/04/22 01:22:03;;;;;;;8.50;5.70;;;7.80;50.50;;;;;;5075365;28;20480;-78
2022/04/22 01:24:31;;;;;;;7.03;4.85;;;8.00;99.20;;;;;;5076691;28;20480;-79
2022/04/22 01:26:58;;;;;;;8.03;6.73;;;7.80;94.90;;;;;;5076243;28;20219;-79
2022/04/22 01:29:25;;;;;;;11.23;5.07;;;7.70;99.90;;;;;;5076364;28;20445;-78
2022/04/22 01:31:51;;;;;;;5.60;5.00;;;7.70;99.90;;;;;;5076209;28;20477;-78
2022/04/22 01:34:18;;;;;;;6.73;5.03;;;7.90;99.90;;;;;;5079220;28;20427;-79
2022/04/22 01:36:46;;;;;;;6.23;4.83;;;7.60;99.90;;;;;;5077683;28;20486;-77
2022/04/22 01:39:14;;;;;;;12.00;5.80;;;7.60;99.90;;;;;;5075636;28;20783;-78
2022/04/22 01:41:40;;;;;;;8.90;6.23;;;7.50;99.90;;;;;;5074527;28;20456;-78
2022/04/22 01:44:07;;;;;;;10.77;6.28;;;7.50;99.90;;;;;;5075286;28;20521;-77
2022/04/22 01:46:34;;;;;;;10.97;5.50;;;7.40;99.90;;;;;;5075387;28;20309;-78
2022/04/22 01:49:01;;;;;;;6.15;5.38;;;7.40;99.90;;;;;;5075031;28;20486;-77
2022/04/22 01:51:28;;;;;;;9.20;5.95;;;7.30;99.90;;;;;;5076680;28;20640;-78
2022/04/22 01:53:55;;;;;;;11.20;6.37;;;7.30;99.90;;;;;;5075759;28;20254;-77
2022/04/22 01:56:23;;;;;;;7.40;5.67;;;7.30;99.90;;;;;;5075012;28;20456;-77
2022/04/22 01:58:49;;;;;;;8.47;5.07;;;7.20;99.90;;;;;;5076788;28;20444;-78
2022/04/22 02:01:16;;;;;;;9.90;6.43;;;7.20;99.90;;;;;;5074451;28;20504;-78
2022/04/22 02:03:43;;;;;;;12.88;6.00;;;7.20;99.90;;;;;;5074784;28;20206;-78
2022/04/22 02:06:09;;;;;;;13.13;6.28;;;7.20;99.90;;;;;;5074066;28;20250;-78
2022/04/22 02:08:37;;;;;;;7.85;6.10;;;7.10;99.90;;;;;;5074105;28;20208;-78
2022/04/22 02:11:04;;;;;;;9.48;5.80;;;7.10;99.90;;;;;;5073739;28;20207;-77
2022/04/22 02:13:36;;;;;;;8.82;6.00;;;7.00;99.90;;;;;;5073879;28;20300;-77
2022/04/22 02:16:03;;;;;;;18.55;7.32;;;7.10;99.90;;;;;;5073731;28;20231;-77
2022/04/22 02:18:30;;;;;;;10.10;7.22;;;7.10;99.90;;;;;;5073958;28;20240;-77
2022/04/22 02:20:57;;;;;;;10.75;6.00;;;7.10;99.90;;;;;;5074515;28;20648;-77
2022/04/22 02:23:23;;;;;;;14.43;6.70;;;7.10;99.90;;;;;;5073946;28;20291;-77
2022/04/22 02:25:50;;;;;;;9.60;6.63;;;7.20;99.90;;;;;;5073987;28;20256;-77
2022/04/22 02:28:35;;;;;;;11.05;6.50;;;7.20;99.90;;;;;;5073419;28;20501;-78
2022/04/22 02:31:05;;;;;;;7.20;6.35;;;7.20;99.90;;;;;;5075130;28;20189;-78
2022/04/22 02:33:32;;;;;;;11.37;6.83;;;7.20;99.90;;;;;;5074337;28;20193;-78
2022/04/22 02:35:59;;;;;;;9.07;6.30;;;7.20;99.90;;;;;;5074993;28;20493;-78
2022/04/22 02:38:26;;;;;;;9.80;6.30;;;7.30;99.90;;;;;;5074657;28;20202;-77
2022/04/22 02:46:23;;;;;;;10.10;6.45;;;7.20;99.90;;;;;;5074032;28;20488;-78
2022/04/22 02:48:50;;;;;;;12.60;6.50;;;7.20;99.90;;;;;;5074005;28;20232;-77
2022/04/22 02:51:16;;;;;;;9.82;7.32;;;7.20;99.90;;;;;;5073552;28;20200;-78
2022/04/22 02:53:43;;;;;;;14.73;7.47;;;7.20;99.90;;;;;;5073298;28;20278;-78
2022/04/22 02:56:10;;;;;;;11.73;8.55;;;7.10;99.90;;;;;;5073472;28;20532;-79
2022/04/22 02:58:39;;;;;;;14.35;8.10;;;7.20;99.90;;;;;;5073532;28;20594;-79
2022/04/22 03:01:05;;;;;;;8.07;5.97;;;7.10;99.90;;;;;;5073390;28;20289;-78
2022/04/22 03:03:34;;;;;;;8.33;6.63;;;7.20;99.90;;;;;;5074803;28;20232;-79
2022/04/22 03:06:00;;;;;;;11.60;7.10;;;7.10;99.90;;;;;;5074722;28;20466;-79
2022/04/22 03:08:27;;;;;;;10.68;7.35;;;7.10;99.90;;;;;;5073469;28;20438;-78
2022/04/22 03:10:54;;;;;;;9.93;7.15;;;7.10;99.90;;;;;;5074440;28;20640;-79
2022/04/22 03:13:20;;;;;;;13.43;9.25;;;7.00;99.90;;;;;;5074978;28;20265;-78
2022/04/22 03:15:47;;;;;;;12.88;8.07;;;7.00;99.90;;;;;;5073895;28;20645;-78
2022/04/22 03:18:14;;;;;;;10.68;6.57;;;7.00;99.90;;;;;;5073921;28;20739;-78
2022/04/22 03:20:42;;;;;;;12.85;8.05;;;7.00;99.90;;;;;;5074349;28;20278;-79
2022/04/22 03:23:09;;;;;;;13.23;7.20;;;7.00;99.90;;;;;;5074418;28;20269;-78
2022/04/22 03:25:36;;;;;;;13.13;6.93;;;7.00;99.90;;;;;;5074217;28;20263;-78
2022/04/22 03:28:05;;;;;;;10.27;7.22;;;7.00;99.90;;;;;;5073377;28;20218;-78
2022/04/22 03:30:34;;;;;;;14.70;8.13;;;6.90;99.90;;;;;;5074592;28;20206;-78
2022/04/22 03:33:01;;;;;;;13.02;7.75;;;6.90;99.90;;;;;;5073681;28;20215;-78
2022/04/22 03:35:27;;;;;;;10.93;7.28;;;6.90;99.90;;;;;;5073970;28;20232;-78
2022/04/22 03:37:55;;;;;;;15.40;8.35;;;7.00;99.90;;;;;;5073450;28;20206;-79
2022/04/22 03:40:22;;;;;;;12.52;7.93;;;6.90;99.90;;;;;;5076542;28;20484;-78
2022/04/22 03:42:49;;;;;;;9.70;7.55;;;6.90;99.90;;;;;;5077826;28;20204;-77
2022/04/22 03:45:15;;;;;;;13.55;8.85;;;6.90;99.90;;;;;;5077111;28;20263;-78
2022/04/22 03:47:42;;;;;;;8.50;6.50;;;6.90;99.90;;;;;;5077472;28;20779;-78
2022/04/22 03:50:09;;;;;;;9.30;8.10;;;6.90;99.90;;;;;;5076784;28;20266;-78
2022/04/22 03:52:35;;;;;;;10.27;7.80;;;6.90;99.90;;;;;;5083347;28;20429;-78
2022/04/22 03:55:03;;;;;;;11.18;6.65;;;6.90;99.90;;;;;;5080093;28;20222;-79
2022/04/22 04:00:15;;;;;;;8.82;7.85;;;6.90;99.90;;;;;;5078574;28;20678;-77
2022/04/22 04:02:42;;;;;;;10.65;7.20;;;6.90;99.90;;;;;;5078262;28;20236;-77
2022/04/22 04:05:09;;;;;;;12.85;8.40;;;6.70;99.90;;;;;;5078074;28;20434;-78
2022/04/22 04:07:36;;;;;;;16.00;9.00;;;6.90;99.90;;;;;;5077879;28;20273;-77
2022/04/22 04:18:17;;;;;;;15.50;7.97;;;7.10;99.90;;;;;;5079886;28;20179;-79
2022/04/22 04:23:28;;;;;;;14.57;9.35;;;6.80;99.90;;;;;;5077469;28;20240;-77
2022/04/22 04:25:56;;;;;;;14.60;8.88;;;6.80;99.90;;;;;;5077674;28;20225;-78
2022/04/22 04:28:23;;;;;;;13.57;9.00;;;6.80;99.90;;;;;;5077800;28;20307;-77
2022/04/22 04:30:49;;;;;;;16.02;8.63;;;6.80;99.90;;;;;;5076864;28;20204;-77
2022/04/22 04:33:16;;;;;;;14.60;7.80;;;6.80;99.90;;;;;;5076470;28;20624;-77
2022/04/22 04:35:46;;;;;;;9.52;8.55;;;6.90;99.90;;;;;;5075873;28;20237;-77
2022/04/22 04:38:13;;;;;;;12.23;7.72;;;6.80;99.90;;;;;;5076791;28;20185;-77
2022/04/22 04:40:40;;;;;;;20.92;9.85;;;6.80;99.90;;;;;;5075622;28;20236;-77
2022/04/22 04:43:08;;;;;;;20.38;9.73;;;6.80;99.90;;;;;;5075909;28;20231;-78
2022/04/22 04:45:35;;;;;;;15.00;8.85;;;6.90;99.90;;;;;;5075665;28;20225;-77
2022/04/22 04:48:02;;;;;;;11.52;9.40;;;6.90;99.90;;;;;;5075467;28;20221;-77
2022/04/22 04:50:30;;;;;;;11.82;9.20;;;6.90;99.90;;;;;;5074319;28;20254;-77
2022/04/22 04:52:57;;;;;;;12.07;8.87;;;6.90;99.90;;;;;;5076147;28;20219;-77
2022/04/22 04:55:24;;;;;;;10.23;8.45;;;6.90;99.90;;;;;;5081290;28;20474;-77
2022/04/22 04:57:50;;;;;;;16.58;8.82;;;6.90;99.90;;;;;;5076683;28;20235;-77
2022/04/22 05:00:19;;;;;;;23.15;8.40;;;6.90;99.90;;;;;;5075477;28;20220;-77
2022/04/22 05:02:46;;;;;;;16.75;8.65;;;6.90;99.90;;;;;;5075465;28;20664;-77
2022/04/22 05:05:13;;;;;;;13.50;9.00;;;7.00;99.90;;;;;;5075265;28;20783;-77
2022/04/22 05:07:51;;;;;;;12.20;9.47;;;7.00;99.90;;;;;;5075582;28;20488;-77
2022/04/22 05:10:19;;;;;;;9.35;8.45;;;7.00;99.90;;;;;;5075450;28;20424;-77
2022/04/22 05:12:45;;;;;;;14.27;8.97;;;7.10;99.90;;;;;;5075598;28;20212;-77
2022/04/22 05:15:12;;;;;;;15.30;10.40;;;7.10;99.90;;;;;;5075361;28;20471;-77
2022/04/22 05:17:42;;;;;;;14.53;9.40;;;7.20;99.90;;;;;;5075023;28;20443;-77
2022/04/22 05:20:10;;;;;;;12.73;8.60;;;7.30;99.90;;;;;;5076085;28;20487;-77
2022/04/22 05:22:38;;;;;;;15.93;8.03;;;7.30;99.90;;;;;;5074918;28;20428;-78
2022/04/22 05:25:05;;;;;;;12.60;8.17;;;7.30;99.90;;;;;;5074168;28;20993;-78
2022/04/22 05:27:32;;;;;;;12.15;8.32;;;7.40;99.90;;;;;;5074561;28;20506;-76
2022/04/22 05:32:47;;;;;;;11.33;8.40;;;7.50;99.90;;;;;;5074475;28;20188;-77
2022/04/22 05:35:15;;;;;;;15.40;8.00;;;7.60;99.90;;;;;;5074134;28;20457;-77
2022/04/22 05:37:45;;;;;;;16.20;9.00;;;7.70;99.90;;;;;;5074314;28;20445;-78
2022/04/22 05:40:13;;;;;;;11.07;8.10;;;7.60;99.90;;;;;;5074228;28;20502;-78
2022/04/22 05:42:41;;;;;;;11.23;8.10;;;7.70;99.90;;;;;;5074527;28;20453;-78
2022/04/22 05:45:08;;;;;;;14.00;10.53;;;7.80;95.20;;;;;;5074947;28;20478;-78
2022/04/22 05:47:36;;;;;;;9.60;7.17;;;7.80;92.60;;;;;;5075213;28;20517;-77
2022/04/22 05:50:06;;;;;;;11.10;8.97;;;7.70;99.90;;;;;;5074697;28;20459;-77
2022/04/22 05:52:33;;;;;;;11.53;7.83;;;7.70;99.90;;;;;;5075330;28;20498;-77
2022/04/22 05:55:02;;;;;;;19.67;8.80;;;7.80;99.90;;;;;;5074592;28;20493;-77
2022/04/22 05:57:29;;;;;;;16.67;9.10;;;8.00;96.50;;;;;;5074204;28;20444;-78
2022/04/22 05:59:55;;;;;;;13.50;9.50;;;8.00;55.80;;;;;;5074104;28;20451;-77
2022/04/22 06:02:22;;;;;;;16.63;9.47;;;8.10;77.30;;;;;;5073949;28;20941;-78
2022/04/22 06:04:49;;;;;;;16.80;8.10;;;8.30;27.20;;;;;;5073870;28;20497;-77
2022/04/22 06:07:17;;;;;;;14.43;8.20;;;8.30;25.70;;;;;;5073710;28;20521;-78
2022/04/22 06:12:27;;;;;;;13.27;9.03;;;8.60;1.00;;;;;;5073916;28;20898;-78
2022/04/22 06:14:54;;;;;;;17.07;9.13;;;8.60;1.00;;;;;;5073881;28;20827;-78
2022/04/22 06:17:21;;;;;;;15.10;8.47;;;8.60;1.00;;;;;;5074327;28;20787;-78
2022/04/22 06:19:48;;;;;;;9.90;7.90;;;8.70;1.00;;;;;;5074032;28;20495;-78
2022/04/22 06:22:14;;;;;;;11.70;7.67;;;8.50;1.00;;;;;;5074166;28;20510;-78
2022/04/22 06:24:42;;;;;;;10.23;8.30;;;8.70;1.00;;;;;;5080975;28;20454;-77
2022/04/22 06:27:10;;;;;;;12.00;8.30;;;8.80;1.00;;;;;;5077704;28;20487;-77
2022/04/22 06:29:37;;;;;;;10.50;7.93;;;8.90;1.00;;;;;;5073544;28;20941;-78
2022/04/22 06:32:04;;;;;;;16.13;8.30;;;8.90;1.00;;;;;;5073649;28;20453;-78
2022/04/22 06:34:31;;;;;;;9.43;6.90;;;9.10;1.00;;;;;;5073412;28;20445;-78
2022/04/22 06:36:59;;;;;;;12.23;7.80;;;9.10;1.00;;;;;;5074293;28;20885;-78
2022/04/22 06:45:46;;;;;;;12.67;7.73;;;9.10;1.00;;;;;;5073481;28;20954;-78
2022/04/22 06:47:44;;;;;;;9.83;7.97;;;9.20;1.00;;;;;;5080468;28;20464;-79
2022/04/22 06:50:17;;;;;;;11.60;10.03;;;9.30;1.00;;;;;;5080100;28;20437;-79
2022/04/22 06:52:44;;;;;;;13.30;7.93;;;9.40;99.90;;;;;;5078728;28;20434;-78
2022/04/22 06:55:13;;;;;;;10.60;8.03;;;9.40;99.90;;;;;;5077399;28;20464;-79
2022/04/22 06:57:45;;;;;;;14.43;9.60;;;9.40;99.90;;;;;;5076277;28;20484;-78
2022/04/22 07:00:13;;;;;;;10.87;7.80;;;9.50;99.90;;;;;;5075729;28;21007;-78
2022/04/22 07:02:40;;;;;;;10.57;8.07;;;9.60;99.90;;;;;;5077128;28;20431;-79
2022/04/22 07:05:09;;;;;;;18.57;8.83;;;9.60;81.60;;;;;;5074821;28;21016;-78
2022/04/22 07:07:36;;;;;;;13.83;8.27;;;9.70;1.00;;;;;;5077809;28;20477;-79
2022/04/22 07:10:03;;;;;;;9.90;7.00;;;9.70;1.00;;;;;;5075192;28;20939;-79
2022/04/22 07:12:32;;;;;;;13.53;8.17;;;9.80;99.90;;;;;;5074819;28;20476;-79
2022/04/22 07:15:04;;;;;;;10.53;7.10;;;9.80;99.90;;;;;;5076237;28;20469;-80
2022/04/22 07:17:33;;;;;;;9.27;7.23;;;10.10;99.90;;;;;;5078276;28;20788;-78
2022/04/22 07:20:01;;;;;;;12.27;8.10;;;10.00;99.90;;;;;;5077161;28;20457;-78
2022/04/22 07:22:28;;;;;;;12.90;6.90;;;9.90;35.80;;;;;;5077203;28;20484;-78
2022/04/22 07:24:56;;;;;;;9.47;7.10;;;9.90;48.00;;;;;;5076925;28;20500;-78
2022/04/22 07:27:27;;;;;;;10.40;7.73;;;9.70;99.90;;;;;;5082177;28;20561;-84
2022/04/22 07:29:54;;;;;;;13.67;8.00;;;10.10;99.90;;;;;;5078463;28;20415;-79
2022/04/22 07:32:23;;;;;;;9.47;7.40;;;10.20;99.90;;;;;;5079373;28;20539;-82
2022/04/22 07:34:50;;;;;;;9.77;7.63;;;10.20;99.90;;;;;;5076813;28;20942;-78
2022/04/22 07:37:20;;;;;;;14.97;7.10;;;10.40;99.90;;;;;;5077283;28;20502;-79
2022/04/22 07:39:47;;;;;;;12.40;8.70;;;10.30;99.90;;;;;;5077388;28;20419;-78
2022/04/22 07:42:17;;;;;;;13.40;7.33;;;10.30;99.90;;;;;;5077020;28;20452;-78
2022/04/22 07:47:33;;;;;;;9.90;6.90;;;10.30;99.90;;;;;;5077491;28;20460;-79
2022/04/22 07:50:02;;;;;;;8.87;7.97;;;10.20;1.00;;;;;;5079059;28;20459;-79
2022/04/22 07:52:29;;;;;;;9.13;7.73;;;10.30;1.00;;;;;;5078675;28;20479;-79
2022/04/22 07:54:55;;;;;;;9.80;7.20;;;10.20;1.00;;;;;;5079257;28;20507;-78
2022/04/22 07:57:22;;;;;;;10.37;8.20;;;10.10;99.90;;;;;;5077852;28;20441;-80
2022/04/22 07:59:49;;;;;;;11.10;7.60;;;10.20;99.90;;;;;;5077555;28;20445;-79
2022/04/22 08:02:27;;;;;;;12.03;8.40;;;10.00;1.00;;;;;;5078791;28;20511;-79
2022/04/22 08:04:55;;;;;;;18.90;9.13;;;10.10;1.00;;;;;;5078873;28;20464;-79
2022/04/22 08:07:22;;;;;;;13.83;8.67;;;10.20;1.00;;;;;;5077443;28;20487;-78
2022/04/22 08:09:49;;;;;;;16.80;9.00;;;10.30;1.00;;;;;;5077209;28;20448;-78
2022/04/22 08:12:16;;;;;;;12.47;9.87;;;10.30;1.00;;;;;;5077994;28;20445;-79
2022/04/22 08:14:43;;;;;;;14.67;10.23;;;10.50;1.00;;;;;;5077099;28;20467;-79
2022/04/22 08:17:09;;;;;;;14.73;9.40;;;10.50;1.00;;;;;;5076910;28;20456;-79
2022/04/22 08:19:38;;;;;;;14.17;10.90;;;10.60;1.00;;;;;;5076303;28;20448;-78
2022/04/22 08:22:08;;;;;;;13.43;10.00;;;10.80;99.90;;;;;;5077995;28;20448;-78
2022/04/22 08:24:34;;;;;;;14.70;10.20;;;10.70;99.90;;;;;;5077988;28;20521;-78
2022/04/22 08:27:01;;;;;;;16.37;11.70;;;10.80;99.90;;;;;;5076825;28;20441;-78
2022/04/22 08:29:27;;;;;;;14.83;11.00;;;10.90;99.90;;;;;;5076424;28;20481;-78
2022/04/22 08:31:55;;;;;;;16.13;12.33;;;11.00;1.00;;;;;;5079615;28;20445;-78
2022/04/22 08:34:22;;;;;;;14.33;10.93;;;11.10;99.90;;;;;;5078209;28;20485;-78
2022/04/22 08:36:49;;;;;;;16.03;10.93;;;11.40;99.90;;;;;;5080516;28;20428;-78
2022/04/22 08:39:17;;;;;;;16.50;11.40;;;11.30;23.90;;;;;;5076728;28;20472;-78
2022/04/22 08:41:48;;;;;;;14.50;11.33;;;11.20;99.90;;;;;;5077813;28;20932;-79
2022/04/22 08:44:20;;;;;;;16.73;11.37;;;11.10;1.00;;;;;;5078717;28;20411;-79
2022/04/22 08:52:16;;;;;;;13.70;9.80;;;11.20;1.00;;;;;;5078760;28;20408;-79
2022/04/22 08:54:45;;;;;;;15.03;10.83;;;11.50;1.00;;;;;;5077379;28;20493;-79
2022/04/22 08:57:13;;;;;;;11.10;9.90;;;11.40;1.00;;;;;;5075906;28;20445;-77
2022/04/22 08:59:40;;;;;;;14.07;11.87;;;11.50;99.90;;;;;;5077827;28;20453;-78
2022/04/22 09:02:07;;;;;;;15.63;11.07;;;11.60;99.90;;;;;;5076610;28;20483;-78
2022/04/22 09:04:33;;;;;;;11.40;10.17;;;11.40;99.90;;;;;;5075910;28;20507;-79
2022/04/22 09:07:00;;;;;;;16.17;12.87;;;11.80;99.90;;;;;;5077225;28;20475;-78
2022/04/22 09:09:28;;;;;;;15.37;11.87;;;11.90;1.00;;;;;;5077130;28;20576;-78
2022/04/22 09:12:07;;;;;;;13.43;10.33;;;11.70;99.90;;;;;;5077694;28;20444;-77
2022/04/22 09:14:34;;;;;;;15.40;11.90;;;11.40;80.80;;;;;;5076208;28;20403;-78
2022/04/22 09:17:01;;;;;;;12.63;10.93;;;12.00;99.90;;;;;;5075832;28;20452;-79
2022/04/22 09:19:34;;;;;;;12.83;11.50;;;11.80;99.90;;;;;;5077768;28;20445;-79
2022/04/22 09:22:02;;;;;;;16.67;11.73;;;11.90;1.00;;;;;;5077855;28;20460;-79
2022/04/22 09:24:28;;;;;;;14.77;11.63;;;11.90;99.90;;;;;;5077728;28;20448;-79
2022/04/22 09:27:08;;;;;;;12.50;11.20;;;11.80;99.90;;;;;;5077779;28;20477;-78
2022/04/22 09:29:42;;;;;;;15.10;12.20;;;11.80;1.00;;;;;;5077278;28;20985;-78
2022/04/22 09:32:11;;;;;;;15.37;11.87;;;12.00;99.90;;;;;;5078382;28;20448;-78
2022/04/22 09:34:41;;;;;;;17.13;11.37;;;12.00;1.00;;;;;;5077524;28;20835;-78
2022/04/22 09:42:51;;;;;;;14.80;13.30;;;12.20;1.00;;;;;;5080332;28;20417;-78
2022/04/22 09:45:18;;;;;;;17.43;14.30;;;12.40;99.90;;;;;;5081663;28;20469;-78
2022/04/22 09:47:57;;;;;;;15.87;14.37;;;12.50;99.90;;;;;;5084494;28;20474;-78
2022/04/22 09:50:43;;;;;;;18.77;15.63;;;12.80;99.90;;;;;;5079588;28;20468;-78
2022/04/22 09:53:12;;;;;;;18.10;16.20;;;12.60;99.90;;;;;;5077050;28;20425;-79
2022/04/22 09:55:49;;;;;;;23.30;16.90;;;12.60;99.90;;;;;;5076386;28;20476;-78
2022/04/22 09:58:24;;;;;;;18.20;16.07;;;12.50;1.00;;;;;;5075700;28;20407;-79
2022/04/22 10:00:57;;;;;;;22.40;15.50;;;12.30;1.00;;;;;;5076969;28;20468;-79
2022/04/22 10:03:26;;;;;;;20.20;18.07;;;12.40;67.20;;;;;;5076832;28;20524;-79
2022/04/22 10:05:53;;;;;;;23.70;17.80;;;12.30;99.90;;;;;;5076570;28;20480;-79
2022/04/22 10:08:24;;;;;;;20.90;17.77;;;12.20;47.10;;;;;;5077590;28;20473;-79
2022/04/22 10:10:53;;;;;;;27.10;19.73;;;12.30;40.40;;;;;;5076282;28;20425;-78
2022/04/22 10:13:25;;;;;;;21.60;18.57;;;12.30;99.90;;;;;;5077292;28;20516;-78
2022/04/22 10:15:55;;;;;;;22.37;18.17;;;12.30;99.90;;;;;;5078761;28;20461;-78
2022/04/22 10:18:23;;;;;;;23.47;20.13;;;12.30;99.90;;;;;;5076288;28;20472;-78
2022/04/22 10:20:50;;;;;;;21.60;17.97;;;12.50;99.90;;;;;;5074429;28;20533;-79
2022/04/22 10:23:19;;;;;;;23.30;16.93;;;12.50;54.10;;;;;;5075759;28;20966;-79
2022/04/22 10:25:45;;;;;;;21.17;18.87;;;12.70;1.00;;;;;;5075454;28;20460;-79
2022/04/22 10:28:14;;;;;;;18.33;16.00;;;12.60;3.00;;;;;;5075480;28;20471;-79
2022/04/22 10:30:43;;;;;;;19.27;17.03;;;12.60;10.10;;;;;;5077438;28;20452;-78
2022/04/22 10:33:11;;;;;;;20.00;17.80;;;12.50;99.90;;;;;;5077317;28;20444;-78
2022/04/22 10:35:42;;;;;;;22.30;18.30;;;12.30;1.00;;;;;;5078344;28;20475;-79
2022/04/22 10:38:28;;;;;;;21.70;18.30;;;12.20;1.00;;;;;;5077516;28;20446;-80
2022/04/22 10:40:55;;;;;;;21.00;17.37;;;11.80;1.00;;;;;;5077155;28;20429;-79
2022/04/22 10:43:22;;;;;;;21.33;18.87;;;12.10;1.00;;;;;;5075089;28;20973;-79
2022/04/22 10:48:39;;;;;;;26.20;20.67;;;12.00;1.00;;;;;;5076030;28;20455;-80
2022/04/22 10:51:09;;;;;;;23.33;20.20;;;11.90;1.00;;;;;;5075728;28;20919;-78
2022/04/22 10:53:46;;;;;;;28.03;22.13;;;12.00;1.00;;;;;;5074331;28;20540;-78
2022/04/22 10:56:35;;;;;;;29.10;21.10;;;11.90;25.50;;;;;;5079562;28;20533;-79
2022/04/22 10:59:27;;;;;;;27.40;21.53;;;11.90;99.90;;;;;;5077626;28;20449;-78
2022/04/22 11:01:56;;;;;;;24.50;21.97;;;11.80;99.90;;;;;;5076570;28;20416;-79
2022/04/22 11:04:28;;;;;;;24.53;21.93;;;11.70;99.90;;;;;;5077060;28;20502;-79
2022/04/22 11:06:55;;;;;;;26.07;21.03;;;11.80;99.90;;;;;;5075227;28;20483;-79
2022/04/22 11:09:27;;;;;;;29.20;23.40;;;11.80;99.90;;;;;;5075088;28;20524;-79
2022/04/22 11:11:53;;;;;;;25.67;22.90;;;11.80;99.90;;;;;;5077172;28;20427;-79
2022/04/22 11:14:23;;;;;;;27.07;22.60;;;11.90;99.90;;;;;;5075187;28;20453;-78
2022/04/22 11:16:49;;;;;;;26.07;21.67;;;11.90;99.90;;;;;;5077671;28;20452;-79
2022/04/22 11:19:36;;;;;;;32.43;24.20;;;11.90;99.90;;;;;;5081314;28;20437;-78
2022/04/22 11:22:06;;;;;;;25.50;22.77;;;12.00;94.80;;;;;;5080280;28;20413;-79
2022/04/22 11:24:33;;;;;;;27.40;22.73;;;12.00;99.90;;;;;;5079246;28;20464;-79
2022/04/22 11:27:05;;;;;;;27.43;23.10;;;11.90;99.90;;;;;;5075537;28;20445;-80
2022/04/22 11:29:32;;;;;;;25.83;23.13;;;12.20;99.90;;;;;;5074420;28;21081;-79
2022/04/22 11:32:05;;;;;;;33.13;24.73;;;12.00;99.90;;;;;;5075032;28;20475;-79
2022/04/22 11:34:54;;;;;;;26.73;23.93;;;12.10;99.90;;;;;;5075728;28;20865;-78
2022/04/22 11:37:23;;;;;;;30.00;24.10;;;11.90;85.90;;;;;;5073773;28;20793;-78
2022/04/22 11:39:51;;;;;;;30.07;24.67;;;11.90;96.30;;;;;;5072829;28;20547;-78
2022/04/22 11:42:18;;;;;;;29.37;24.50;;;11.90;89.60;;;;;;5073111;28;20467;-78
2022/04/22 11:44:45;;;;;;;28.53;24.20;;;11.90;84.60;;;;;;5075737;28;20518;-79
2022/04/22 11:47:12;;;;;;;28.70;25.70;;;12.00;90.20;;;;;;5075112;28;20464;-78
2022/04/22 11:49:39;;;;;;;27.60;24.20;;;12.00;92.90;;;;;;5076055;28;20889;-79
2022/04/22 11:52:08;;;;;;;27.10;24.00;;;12.10;16.40;;;;;;5075405;28;20453;-79
2022/04/22 11:54:36;;;;;;;33.27;26.10;;;11.80;45.60;;;;;;5077109;28;20480;-79
2022/04/22 11:57:05;;;;;;;31.20;24.60;;;12.10;34.10;;;;;;5073813;28;20449;-78
2022/04/22 11:59:31;;;;;;;31.47;27.90;;;12.10;1.00;;;;;;5077252;28;20539;-79
2022/04/22 12:10:13;;;;;;;32.03;27.17;;;12.00;1.00;;;;;;5063550;28;20559;-79
2022/04/22 12:12:48;;;;;;;34.40;26.50;;;12.00;1.00;;;;;;5078627;28;20444;-79
2022/04/22 12:15:18;;;;;;;34.97;27.90;;;12.00;1.00;;;;;;5078183;28;20556;-78
2022/04/22 12:17:45;;;;;;;31.93;26.50;;;11.90;10.50;;;;;;5076996;28;20484;-78
2022/04/22 12:20:12;;;;;;;30.73;26.03;;;12.00;19.50;;;;;;5076517;28;20449;-79
2022/04/22 12:22:40;;;;;;;32.43;27.20;;;12.10;20.10;;;;;;5076919;28;20483;-78
2022/04/22 12:25:08;;;;;;;34.97;28.07;;;12.00;3.40;;;;;;5076984;28;20447;-79
2022/04/22 12:27:35;;;;;;;38.70;28.07;;;12.00;18.40;;;;;;5077084;28;20448;-78
2022/04/22 12:30:03;;;;;;;30.10;26.73;;;12.10;15.60;;;;;;5076724;28;20473;-78
2022/04/22 12:32:31;;;;;;;32.10;27.60;;;12.20;1.00;;;;;;5076617;28;20541;-79
2022/04/22 12:35:13;;;;;;;30.10;24.43;;;12.30;1.00;;;;;;5077110;28;20492;-78
2022/04/22 12:37:45;;;;;;;33.00;26.13;;;12.30;1.00;;;;;;5076974;28;20958;-78
2022/04/22 12:40:14;;;;;;;31.57;28.00;;;12.30;1.00;;;;;;5077715;28;20520;-78
2022/04/22 12:42:41;;;;;;;31.70;27.70;;;12.30;1.00;;;;;;5078232;28;20518;-78
2022/04/22 12:53:34;;;;;;;32.60;23.70;;;12.60;1.00;;;;;;5076107;28;20440;-77
2022/04/22 12:56:02;;;;;;;28.07;24.37;;;12.80;1.00;;;;;;5076867;28;20552;-77
2022/04/22 12:58:29;;;;;;;27.73;23.53;;;12.90;99.90;;;;;;5076842;28;20491;-77
2022/04/22 13:00:56;;;;;;;30.60;24.00;;;13.10;99.90;;;;;;5077207;28;20480;-77
2022/04/22 13:03:23;;;;;;;26.93;22.30;;;13.20;47.90;;;;;;5077344;28;20990;-79
2022/04/22 13:05:50;;;;;;;30.70;23.70;;;13.20;1.00;;;;;;5076785;28;20496;-78
2022/04/22 13:08:17;;;;;;;23.67;20.40;;;13.30;1.00;;;;;;5077315;28;20457;-79
2022/04/22 13:10:47;;;;;;;26.27;21.70;;;13.40;99.90;;;;;;5076834;28;20477;-79
2022/04/22 13:13:16;;;;;;;25.23;21.50;;;13.40;99.90;;;;;;5075959;28;20801;-79
2022/04/22 13:15:42;;;;;;;21.30;17.53;;;13.50;6.00;;;;;;5075404;28;20469;-78
2022/04/22 13:18:12;;;;;;;24.60;19.67;;;13.70;99.90;;;;;;5074753;28;20455;-79
2022/04/22 13:20:39;;;;;;;21.47;18.87;;;13.80;99.90;;;;;;5075410;28;20444;-78
2022/04/22 13:23:05;;;;;;;22.63;17.17;;;13.90;1.00;;;;;;5075796;28;20503;-78
2022/04/22 13:25:32;;;;;;;22.00;18.43;;;13.80;1.00;;;;;;5075428;28;20495;-79
2022/04/22 13:28:00;;;;;;;21.90;17.80;;;13.80;1.00;;;;;;5075279;28;20479;-79
2022/04/22 13:30:27;;;;;;;22.57;18.20;;;13.70;1.00;;;;;;5075144;28;20845;-78
2022/04/22 13:32:54;;;;;;;24.70;19.87;;;13.70;1.00;;;;;;5075064;28;20945;-79
2022/04/22 13:35:21;;;;;;;21.00;18.80;;;13.70;1.00;;;;;;5075293;28;20513;-78
2022/04/22 13:37:48;;;;;;;25.43;19.00;;;13.70;1.00;;;;;;5075721;28;20820;-78
2022/04/22 13:40:16;;;;;;;21.20;16.90;;;13.70;1.00;;;;;;5077046;28;20503;-78
2022/04/22 13:42:42;;;;;;;18.80;16.30;;;13.70;2.90;;;;;;5078391;28;20991;-79
2022/04/22 13:53:23;;;;;;;20.30;16.97;;;13.40;1.00;;;;;;5074996;28;20425;-79
2022/04/22 13:55:50;;;;;;;20.93;16.97;;;13.40;99.90;;;;;;5074526;28;20801;-78
2022/04/22 13:58:17;;;;;;;19.93;17.73;;;13.50;1.00;;;;;;5075901;28;20448;-78
2022/04/22 14:00:49;;;;;;;18.93;16.67;;;13.60;1.00;;;;;;5075157;28;20476;-78
2022/04/22 14:03:15;;;;;;;21.07;15.60;;;13.60;1.00;;;;;;5075417;28;20434;-78
2022/04/22 14:05:42;;;;;;;17.10;15.33;;;13.60;99.90;;;;;;5074588;28;20983;-78
2022/04/22 14:08:08;;;;;;;18.80;15.07;;;13.70;99.90;;;;;;5075376;28;20477;-78